Pagrindinis puslapis
METAR-TAF:

METAR-TAF

Oro uostai :

Odensė, Danija

platuma: 55-29N, ilguma: 010-20E, Aukštis: 17 m

Dabartinis oras

Ataskaita buvo paskelbta 18 minutes, ne 15:20 UTC
Vėjas 5 kt iš Vakarų, svyruoja nuo Vakarų/Pietvakarių ir Šiaurės Vakarų
Temperatūra 3°C
Drėgmė 87%
Slėgis 1018 hPa
Matomumas 10 km arba daugiau
Su prošvaistėmis ne aukštis 1700 ft

METAR: EKOD 271520Z 27005KT 250V320 9999 BKN017 03/01 Q1018

Laikas: 16:38 (15:38 UTC)

Prognozė

Ataskaita buvo paskelbta 3 valandos ir 45 minutes, ne 11:53 UTC
Prognozė galioja nuo 27 metu 12 UTC su 27 metu 16 UTC
Vėjas 5 kt iš Pietų
Matomumas 10 km arba daugiau
Su prošvaistėmis ne aukštis 1200 ft
Laikinai
nuo 27 metu 12 UTC su 27 metu 16 UTC
Su prošvaistėmis ne aukštis 2000 ft

TAF: EKOD 271153Z 2712/2716 19005KT 9999 BKN012 TEMPO 2712/2716 BKN020

Orai ataskaitas ir orų prognozės (METAR, TAF).

turimą stotys yra geltonos ir raudonos taškus žemėlapyje.

Perkelti pele per norėdami pamatyti stoties vardą.

Tada spustelėkite, norėdami matyti oro stebėjimo ir prognozės.

Norėdami pakeisti žemėlapį: spustelėkite ant žalios mygtukų su juodo kryžiaus žemyn,; žalią mygtuką su brūkšneliu, jei norite nutolinti; arba žalių rodyklių gretimoms žemėlapius.


METAR-TAF: